createdAt,value
2019-03-12T00:01:53.723Z,100482.47
2019-03-12T00:04:25.260Z,100485.56
2019-03-12T00:06:57.944Z,100491.38
2019-03-12T00:09:29.586Z,100492.48
2019-03-12T00:12:01.167Z,100493.78
2019-03-12T00:14:32.537Z,100491.19
2019-03-12T00:17:04.174Z,100491.94
2019-03-12T00:19:35.723Z,100497.53
2019-03-12T00:22:07.175Z,100493.53
2019-03-12T00:24:39.143Z,100497.53
2019-03-12T00:27:10.727Z,100505.05
2019-03-12T00:29:42.455Z,100501.75
2019-03-12T00:32:14.110Z,100527.22
2019-03-12T00:34:45.591Z,100526.17
2019-03-12T00:37:17.345Z,100531.98
2019-03-12T00:39:48.779Z,100538.49
2019-03-12T00:42:20.437Z,100537.95
2019-03-12T00:44:51.896Z,100536.09
2019-03-12T00:47:23.472Z,100544.64
2019-03-12T00:49:54.992Z,100544.64
2019-03-12T00:52:27.681Z,100546.30
2019-03-12T00:54:59.242Z,100548.25
2019-03-12T00:57:30.798Z,100553.70
2019-03-12T01:00:02.349Z,100554.39
2019-03-12T01:02:35.547Z,100554.50
2019-03-12T01:05:07.102Z,100554.45
2019-03-12T01:07:38.396Z,100558.75
2019-03-12T01:10:14.450Z,100557.99
2019-03-12T01:12:45.668Z,100551.19
2019-03-12T01:15:17.310Z,100555.39
2019-03-12T01:17:48.820Z,100549.44
2019-03-12T01:20:20.474Z,100562.99
2019-03-12T01:22:52.061Z,100564.41
2019-03-12T01:25:23.880Z,100565.41
2019-03-12T01:27:55.193Z,100565.41
2019-03-12T01:30:26.742Z,100559.14
2019-03-12T01:32:58.302Z,100576.61
2019-03-12T01:35:29.859Z,100585.11
2019-03-12T01:38:01.414Z,100589.02
2019-03-12T01:40:32.765Z,100588.62
2019-03-12T01:43:04.316Z,100591.09
2019-03-12T01:45:35.976Z,100598.27
2019-03-12T01:48:07.524Z,100600.93
2019-03-12T01:50:38.988Z,100597.30
2019-03-12T01:53:10.537Z,100602.50
2019-03-12T01:55:42.006Z,100609.25
2019-03-12T01:58:14.744Z,100612.34
2019-03-12T02:00:47.103Z,100615.60
2019-03-12T02:03:18.590Z,100620.89
2019-03-12T02:05:50.260Z,100625.89
2019-03-12T02:08:21.806Z,100617.38
2019-03-12T02:10:53.473Z,100620.69
2019-03-12T02:13:25.137Z,100614.11
2019-03-12T02:15:56.590Z,100612.42
2019-03-12T02:18:28.135Z,100610.36
2019-03-12T02:20:59.581Z,100606.73
2019-03-12T02:23:31.159Z,100608.03
2019-03-12T02:26:02.510Z,100622.39
2019-03-12T02:28:34.044Z,100632.97
2019-03-12T02:31:05.601Z,100635.17
2019-03-12T02:33:37.166Z,100632.36
2019-03-12T02:36:08.643Z,100632.81
2019-03-12T02:38:40.194Z,100628.55
2019-03-12T02:41:11.740Z,100629.09
2019-03-12T02:43:43.296Z,100636.75
2019-03-12T02:46:14.755Z,100642.17
2019-03-12T02:48:46.283Z,100633.77
2019-03-12T02:51:17.840Z,100639.50
2019-03-12T02:53:49.411Z,100638.73
2019-03-12T02:56:20.950Z,100640.26
2019-03-12T02:58:52.617Z,100645.59
2019-03-12T03:01:24.082Z,100651.64
2019-03-12T03:03:55.846Z,100649.98
2019-03-12T03:06:31.697Z,100647.91
2019-03-12T03:09:04.056Z,100657.83
2019-03-12T03:11:36.946Z,100659.62
2019-03-12T03:14:11.569Z,100654.11
2019-03-12T03:16:43.124Z,100657.25
2019-03-12T03:19:14.592Z,100663.13
2019-03-12T03:21:46.031Z,100659.94
2019-03-12T03:24:17.589Z,100671.09
2019-03-12T03:26:49.356Z,100678.81
2019-03-12T03:29:20.832Z,100680.56
2019-03-12T03:31:52.569Z,100689.43
2019-03-12T03:34:27.785Z,100690.28
2019-03-12T03:36:56.803Z,100698.61
2019-03-12T03:39:28.457Z,100692.88
2019-03-12T03:42:00.002Z,100700.82
2019-03-12T03:44:31.563Z,100702.66
2019-03-12T03:47:03.246Z,100711.61
2019-03-12T03:49:34.679Z,100707.09
2019-03-12T03:52:07.147Z,100697.99
2019-03-12T03:54:38.916Z,100708.30
2019-03-12T03:57:10.573Z,100718.66
2019-03-12T03:59:42.332Z,100718.03
2019-03-12T04:02:13.991Z,100711.36
2019-03-12T04:04:45.543Z,100709.69
2019-03-12T04:07:17.418Z,100710.59
2019-03-12T04:09:48.813Z,100712.83
2019-03-12T04:12:20.326Z,100714.58
2019-03-12T04:14:51.978Z,100727.98
2019-03-12T04:17:23.434Z,100740.80
2019-03-12T04:19:54.779Z,100742.50
2019-03-12T04:22:26.342Z,100754.03
2019-03-12T04:24:57.698Z,100748.30
2019-03-12T04:27:29.237Z,100758.25
2019-03-12T04:30:00.802Z,100761.25
2019-03-12T04:32:32.347Z,100758.92
2019-03-12T04:35:04.216Z,100760.22
2019-03-12T04:37:35.562Z,100765.59
2019-03-12T04:40:13.669Z,100772.55
2019-03-12T04:42:45.328Z,100775.15
2019-03-12T04:45:17.085Z,100786.31
2019-03-12T04:47:48.645Z,100794.48
2019-03-12T04:50:19.995Z,100796.09
2019-03-12T04:52:51.759Z,100793.72
2019-03-12T04:55:23.204Z,100802.06
2019-03-12T04:57:54.866Z,100805.97
2019-03-12T05:00:26.219Z,100814.00
2019-03-12T05:02:57.759Z,100819.73
2019-03-12T05:05:29.427Z,100826.38
2019-03-12T05:08:00.973Z,100835.94
2019-03-12T05:10:32.526Z,100840.68
2019-03-12T05:13:04.099Z,100844.41
2019-03-12T05:15:35.547Z,100840.13
2019-03-12T05:18:07.104Z,100835.12
2019-03-12T05:20:38.663Z,100836.20
2019-03-12T05:23:10.111Z,100837.32
2019-03-12T05:25:41.582Z,100851.63
2019-03-12T05:28:13.110Z,100848.23
2019-03-12T05:30:44.594Z,100842.30
2019-03-12T05:33:16.126Z,100847.89
2019-03-12T05:35:47.681Z,100854.67
2019-03-12T05:38:19.458Z,100858.27
2019-03-12T06:18:49.693Z,100897.61
2019-03-12T06:21:22.487Z,100897.62
2019-03-12T06:23:54.051Z,100896.50
2019-03-12T06:26:25.409Z,100900.27
2019-03-12T06:28:56.847Z,100905.48
2019-03-12T06:31:29.769Z,100899.78
2019-03-12T06:34:02.676Z,100905.69
2019-03-12T06:36:35.576Z,100914.20
2019-03-12T06:39:09.540Z,100905.34
2019-03-12T06:41:42.548Z,100906.37
2019-03-12T06:44:21.804Z,100910.87
2019-03-12T06:47:00.895Z,100915.52
2019-03-12T06:49:33.841Z,100915.73
2019-03-12T06:52:09.716Z,100909.83
2019-03-12T06:54:45.531Z,100911.23
2019-03-12T06:57:18.418Z,100910.41
2019-03-12T07:00:06.795Z,100914.41
2019-03-12T07:02:55.089Z,100915.64
2019-03-12T07:05:30.916Z,100913.75
2019-03-12T07:08:06.597Z,100920.94
2019-03-12T07:10:51.505Z,100922.95
2019-03-12T07:13:30.731Z,100917.50
2019-03-12T07:16:06.541Z,100911.30
2019-03-12T07:18:45.529Z,100925.19
2019-03-12T07:21:33.537Z,100927.80
2019-03-12T07:24:09.998Z,100934.92
2019-03-12T07:26:44.112Z,100937.83
2019-03-12T07:29:35.287Z,100937.61
2019-03-12T07:32:24.749Z,100934.98
2019-03-12T07:35:14.103Z,100936.34
2019-03-12T07:37:56.017Z,100934.47
2019-03-12T07:40:37.930Z,100931.31
2019-03-12T07:43:25.926Z,100924.91
2019-03-12T07:45:58.842Z,100920.23
2019-03-12T07:48:34.752Z,100922.83
2019-03-12T07:51:10.723Z,100917.88
2019-03-12T07:53:59.976Z,100918.12
2019-03-12T07:56:32.938Z,100911.81
2019-03-12T07:59:17.881Z,100908.86
2019-03-12T08:02:09.087Z,100917.03
2019-03-12T08:04:58.148Z,100919.19
2019-03-12T08:07:43.338Z,100915.56
2019-03-12T08:10:16.200Z,100906.01
2019-03-12T08:12:51.929Z,100911.56
2019-03-12T08:15:25.741Z,100911.67
2019-03-12T08:17:58.564Z,100904.69
2019-03-12T08:20:40.673Z,100890.68
2019-03-12T08:23:31.975Z,100898.35
2019-03-12T08:26:07.699Z,100893.95
2019-03-12T08:28:43.788Z,100888.80
2019-03-12T08:31:16.611Z,100889.30
2019-03-12T08:33:50.967Z,100876.08
2019-03-12T08:36:30.065Z,100881.37
2019-03-12T08:39:03.283Z,100881.28
2019-03-12T08:41:49.415Z,100884.30
2019-03-12T08:44:40.970Z,100880.67
2019-03-12T08:47:14.708Z,100881.10
2019-03-12T08:49:53.486Z,100883.41
2019-03-12T08:52:35.174Z,100880.94
2019-03-12T08:55:11.252Z,100880.48
2019-03-12T08:57:44.060Z,100880.31
2019-03-12T09:00:25.780Z,100882.26
2019-03-12T09:02:58.605Z,100881.67
2019-03-12T09:05:34.866Z,100881.88
2019-03-12T09:08:23.893Z,100883.55
2019-03-12T09:11:08.921Z,100878.64
2019-03-12T09:13:48.886Z,100882.72
2019-03-12T09:16:21.655Z,100879.30
2019-03-12T09:19:06.591Z,100884.14
2019-03-12T09:21:48.437Z,100880.89
2019-03-12T09:24:30.659Z,100885.80
2019-03-12T09:27:15.435Z,100885.69
2019-03-12T09:29:51.297Z,100875.72
2019-03-12T09:32:42.199Z,100877.28
2019-03-12T09:35:24.041Z,100873.09
2019-03-12T09:38:00.073Z,100876.30
2019-03-12T09:40:32.924Z,100864.13
2019-03-12T09:43:11.911Z,100873.28
2019-03-12T09:45:50.707Z,100872.26
2019-03-12T09:48:32.595Z,100873.22
2019-03-12T09:51:11.327Z,100876.34
2019-03-12T09:53:46.856Z,100867.19
2019-03-12T09:56:36.167Z,100863.00
2019-03-12T09:59:08.988Z,100860.92
2019-03-12T10:01:41.761Z,100862.30
2019-03-12T10:04:17.662Z,100859.89
2019-03-12T10:07:07.347Z,100857.47
2019-03-12T10:09:42.897Z,100858.45
2019-03-12T10:12:15.800Z,100861.20
2019-03-12T10:14:57.469Z,100848.44
2019-03-12T10:17:36.456Z,100843.61
2019-03-12T10:20:22.718Z,100846.50
2019-03-12T10:23:01.382Z,100835.64
2019-03-12T10:25:40.402Z,100839.55
2019-03-12T10:28:16.166Z,100831.36
2019-03-12T10:30:58.050Z,100841.27
2019-03-12T10:33:30.876Z,100839.27
2019-03-12T10:36:09.640Z,100831.41
2019-03-12T10:39:18.945Z,100829.05
2019-03-12T10:42:09.858Z,100830.98
2019-03-12T10:44:45.545Z,100837.92
2019-03-12T10:47:24.159Z,100829.41
2019-03-12T10:49:55.501Z,100837.48
2019-03-12T10:52:26.865Z,100832.55
2019-03-12T10:55:11.748Z,100831.91
2019-03-12T10:57:31.114Z,100839.38
2019-03-12T11:00:04.848Z,100832.31
2019-03-12T11:02:40.464Z,100829.76
2019-03-12T11:05:10.459Z,100824.84
2019-03-12T11:07:41.701Z,100817.36
2019-03-12T11:10:15.091Z,100819.09
2019-03-12T11:12:46.387Z,100823.91
2019-03-12T11:15:17.615Z,100819.74
2019-03-12T11:17:50.363Z,100806.41
2019-03-12T11:20:26.854Z,100806.94
2019-03-12T11:22:59.183Z,100809.30
2019-03-12T11:25:30.394Z,100808.86
2019-03-12T11:28:01.714Z,100808.66
2019-03-12T11:30:32.963Z,100813.11
2019-03-12T11:33:04.371Z,100819.16
2019-03-12T11:35:39.176Z,100817.33
2019-03-12T11:38:08.669Z,100813.41
2019-03-12T11:40:39.886Z,100806.83
2019-03-12T11:43:11.126Z,100809.04
2019-03-12T11:45:42.386Z,100802.43
2019-03-12T11:48:13.742Z,100792.97
2019-03-12T11:50:45.033Z,100792.56
2019-03-12T11:53:16.240Z,100798.48
2019-03-12T11:55:47.471Z,100798.83
2019-03-12T11:58:19.809Z,100801.05
2019-03-12T12:00:59.228Z,100791.78
2019-03-12T12:03:30.520Z,100796.92
2019-03-12T12:06:01.799Z,100794.14
2019-03-12T12:08:33.189Z,100807.88
2019-03-12T12:11:12.506Z,100799.87
2019-03-12T12:13:43.875Z,100793.31
2019-03-12T12:16:15.123Z,100797.69
2019-03-12T12:18:46.402Z,100810.35
2019-03-12T12:21:17.593Z,100810.48
2019-03-12T12:23:48.942Z,100815.16
2019-03-12T12:26:20.167Z,100818.72
2019-03-12T12:28:51.748Z,100820.22
2019-03-12T12:31:23.128Z,100812.52
2019-03-12T12:33:54.466Z,100817.53
2019-03-12T12:36:25.746Z,100818.12
2019-03-12T12:38:56.979Z,100814.81
2019-03-12T12:41:28.348Z,100811.59
2019-03-12T12:43:59.587Z,100803.25
2019-03-12T12:46:30.935Z,100805.76
2019-03-12T12:49:02.260Z,100812.02
2019-03-12T12:51:33.722Z,100822.49
2019-03-12T12:54:06.040Z,100819.90
2019-03-12T12:56:37.373Z,100810.63
2019-03-12T12:59:08.738Z,100805.63
2019-03-12T13:01:40.112Z,100820.79
2019-03-12T13:04:11.428Z,100812.01
2019-03-12T13:06:42.785Z,100816.22
2019-03-12T13:09:14.167Z,100816.81
2019-03-12T13:11:45.395Z,100818.97
2019-03-12T13:14:16.622Z,100815.16
2019-03-12T13:16:47.941Z,100812.66
2019-03-12T13:19:19.180Z,100823.62
2019-03-12T13:21:50.541Z,100820.13
2019-03-12T13:24:22.913Z,100812.34
2019-03-12T13:26:54.133Z,100815.77
2019-03-12T13:29:26.445Z,100816.55
2019-03-12T13:31:57.828Z,100811.73
2019-03-12T13:34:29.226Z,100820.84
2019-03-12T13:37:00.506Z,100822.39
2019-03-12T13:39:31.855Z,100825.23
2019-03-12T13:42:03.191Z,100827.32
2019-03-12T13:44:35.064Z,100820.64
2019-03-12T13:47:06.413Z,100812.75
2019-03-12T13:49:37.725Z,100813.70
2019-03-12T13:52:09.098Z,100816.45
2019-03-12T13:54:40.435Z,100815.39
2019-03-12T13:57:11.802Z,100817.61
2019-03-12T13:59:43.129Z,100814.66
2019-03-12T14:02:14.435Z,100820.94
2019-03-12T14:04:46.688Z,100823.19
2019-03-12T14:07:17.900Z,100819.95
2019-03-12T14:09:49.167Z,100817.08
2019-03-12T14:12:20.378Z,100822.30
2019-03-12T14:14:51.702Z,100814.22
2019-03-12T14:17:23.017Z,100819.76
2019-03-12T14:19:55.381Z,100816.55
2019-03-12T14:22:26.765Z,100812.85
2019-03-12T14:24:58.205Z,100818.47
2019-03-12T14:27:29.579Z,100825.52
2019-03-12T14:30:00.894Z,100831.08
2019-03-12T14:32:33.722Z,100823.37
2019-03-12T14:35:06.135Z,100829.94
2019-03-12T14:37:37.483Z,100824.31
2019-03-12T14:40:08.889Z,100826.43
2019-03-12T14:42:40.244Z,100834.88
2019-03-12T14:45:15.045Z,100833.87
2019-03-12T14:47:46.416Z,100839.23
2019-03-12T14:50:18.614Z,100836.45
2019-03-12T14:53:21.740Z,100834.14
2019-03-12T14:55:46.606Z,100840.69
2019-03-12T14:58:17.974Z,100851.17
2019-03-12T15:00:49.376Z,100854.75
2019-03-12T15:03:20.715Z,100856.20
2019-03-12T15:05:52.037Z,100852.38
2019-03-12T15:08:23.378Z,100862.70
2019-03-12T15:10:54.701Z,100859.91
2019-03-12T15:13:26.056Z,100861.63
2019-03-12T15:15:57.493Z,100870.06
2019-03-12T15:18:28.933Z,100873.05
2019-03-12T15:21:00.370Z,100875.34
2019-03-12T15:23:31.861Z,100881.31
2019-03-12T15:26:03.182Z,100885.13
2019-03-12T15:28:34.538Z,100886.05
2019-03-12T15:31:05.975Z,100895.49
2019-03-12T15:33:37.354Z,100905.15
2019-03-12T15:36:08.787Z,100904.42
2019-03-12T15:38:40.974Z,100913.58
2019-03-12T15:41:12.348Z,100914.15
2019-03-12T15:43:43.771Z,100915.03
2019-03-12T15:46:15.110Z,100911.03
2019-03-12T15:48:46.572Z,100918.05
2019-03-12T15:51:17.924Z,100913.20
2019-03-12T15:53:49.379Z,100922.52
2019-03-12T15:56:22.110Z,100929.18
2019-03-12T15:58:53.435Z,100930.28
2019-03-12T16:01:24.867Z,100938.12
2019-03-12T16:03:56.212Z,100933.62
2019-03-12T16:06:27.555Z,100930.89
2019-03-12T16:08:59.036Z,100937.68
2019-03-12T16:11:31.360Z,100936.18
2019-03-12T16:14:03.000Z,100934.34
2019-03-12T16:16:34.395Z,100929.67
2019-03-12T16:19:05.844Z,100936.55
2019-03-12T16:21:37.139Z,100953.38
2019-03-12T16:24:08.509Z,100956.55
2019-03-12T16:26:39.922Z,100958.00
2019-03-12T16:29:11.319Z,100960.86
2019-03-12T16:31:42.741Z,100965.75
2019-03-12T16:34:14.122Z,100963.48
2019-03-12T16:36:45.518Z,100966.05
2019-03-12T16:39:16.969Z,100969.20
2019-03-12T16:41:48.341Z,100964.22
2019-03-12T16:44:19.732Z,100953.31
2019-03-12T16:46:51.196Z,100953.09
2019-03-12T16:49:22.559Z,100964.23
2019-03-12T16:51:53.908Z,100963.56
2019-03-12T16:54:25.314Z,100966.23
2019-03-12T16:56:56.673Z,100980.53
2019-03-12T16:59:28.029Z,100976.92
2019-03-12T17:01:59.478Z,100987.42
2019-03-12T17:04:30.944Z,100980.14
2019-03-12T17:07:02.390Z,100981.71
2019-03-12T17:09:33.821Z,100981.55
2019-03-12T17:12:05.160Z,100978.81
2019-03-12T17:14:39.039Z,100983.50
2019-03-12T17:17:10.003Z,100978.21
2019-03-12T17:19:41.368Z,100977.41
2019-03-12T17:22:12.853Z,100978.09
2019-03-12T17:24:44.352Z,100974.19
2019-03-12T17:27:15.730Z,100972.61
2019-03-12T17:29:47.187Z,100974.81
2019-03-12T17:32:18.737Z,100963.63
2019-03-12T17:34:50.118Z,100971.08
2019-03-12T17:37:21.629Z,100977.11
2019-03-12T17:39:53.171Z,100973.28
2019-03-12T17:42:24.530Z,100990.91
2019-03-12T17:44:56.005Z,100989.16
2019-03-12T17:47:27.492Z,100985.02
2019-03-12T17:49:58.932Z,100987.39
2019-03-12T17:52:30.390Z,100988.06
2019-03-12T17:55:01.822Z,100984.00
2019-03-12T17:57:33.299Z,100982.47
2019-03-12T18:00:08.690Z,100987.66
2019-03-12T18:02:42.656Z,100981.05
2019-03-12T18:05:13.208Z,100983.95
2019-03-12T18:07:45.567Z,100971.02
2019-03-12T18:10:18.302Z,100978.63
2019-03-12T18:12:49.689Z,100969.37
2019-03-12T18:15:21.515Z,100973.89
2019-03-12T18:17:52.961Z,100978.85
2019-03-12T18:20:24.739Z,100980.03
2019-03-12T18:22:56.278Z,100980.77
2019-03-12T18:25:33.035Z,100979.84
2019-03-12T18:28:04.639Z,100977.64
2019-03-12T18:30:36.068Z,100972.73
2019-03-12T18:33:07.413Z,100980.28
2019-03-12T18:35:38.943Z,100990.50
2019-03-12T18:38:10.510Z,100989.94
2019-03-12T18:40:42.008Z,100995.48
2019-03-12T18:43:15.031Z,101002.29
2019-03-12T18:45:47.108Z,101002.71
2019-03-12T18:48:18.658Z,101007.84
2019-03-12T18:50:50.416Z,101003.36
2019-03-12T18:53:22.065Z,100993.76
2019-03-12T18:55:56.957Z,100999.99
2019-03-12T18:58:28.579Z,101000.37
2019-03-12T19:01:02.240Z,100999.92
2019-03-12T19:03:33.701Z,100992.58
2019-03-12T19:06:05.306Z,100992.83
2019-03-12T19:08:37.355Z,100985.67
2019-03-12T19:11:09.009Z,100985.03
2019-03-12T19:13:40.523Z,100981.33
2019-03-12T19:16:12.198Z,100977.23
2019-03-12T19:18:43.841Z,100972.67
2019-03-12T19:21:15.625Z,100978.48
2019-03-12T19:23:47.309Z,100965.32
2019-03-12T19:26:19.271Z,100959.94
2019-03-12T19:28:51.062Z,100958.75
2019-03-12T19:31:24.677Z,100966.26
2019-03-12T19:33:57.942Z,100949.14
2019-03-12T19:36:31.296Z,100933.90
2019-03-12T19:39:03.156Z,100932.71
2019-03-12T19:41:36.746Z,100941.06
2019-03-12T19:44:08.708Z,100933.64
2019-03-12T19:46:40.436Z,100932.34
2019-03-12T19:49:12.131Z,100928.97
2019-03-12T19:51:43.808Z,100929.62
2019-03-12T19:54:15.708Z,100928.94
2019-03-12T19:56:47.618Z,100920.38
2019-03-12T19:59:19.309Z,100924.91
2019-03-12T20:01:51.719Z,100930.77
2019-03-12T20:04:23.768Z,100932.58
2019-03-12T20:06:55.610Z,100937.41
2019-03-12T20:09:33.471Z,100939.22
2019-03-12T20:12:20.186Z,100947.50
2019-03-12T20:15:07.941Z,100959.22
2019-03-12T20:17:49.223Z,100964.44
2019-03-12T20:20:43.873Z,100970.70
2019-03-12T20:23:18.893Z,100963.16
2019-03-12T20:26:13.428Z,100966.09
2019-03-12T20:29:06.074Z,100954.02
2019-03-12T20:32:01.835Z,100947.20
2019-03-12T20:34:54.444Z,100945.87
2019-03-12T20:38:04.463Z,100944.58
2019-03-12T20:41:05.392Z,100948.91
2019-03-12T20:43:47.244Z,100950.78
2019-03-12T20:46:33.796Z,100949.98
2019-03-12T20:49:11.281Z,100948.73
2019-03-12T20:52:03.008Z,100957.00
2019-03-12T20:54:57.930Z,100964.83
2019-03-12T20:57:57.957Z,100967.08
2019-03-12T21:00:58.321Z,100964.14
2019-03-12T21:04:05.927Z,100960.22
2019-03-12T21:07:02.797Z,100965.75
2019-03-12T21:09:59.864Z,100964.39
2019-03-12T21:12:55.333Z,100965.11
2019-03-12T21:15:38.852Z,100973.58
2019-03-12T21:18:19.243Z,100964.89
2019-03-12T21:21:09.943Z,100958.83
2019-03-12T21:24:20.819Z,100959.99
2019-03-12T21:27:00.936Z,100968.17
2019-03-12T21:29:44.211Z,100965.17
2019-03-12T21:32:16.806Z,100963.84
2019-03-12T21:34:48.599Z,100957.75
2019-03-12T21:37:20.053Z,100953.70
2019-03-12T21:39:55.730Z,100948.08
2019-03-12T21:42:25.539Z,100953.56
2019-03-12T21:44:57.236Z,100945.02
2019-03-12T21:47:28.580Z,100948.58
2019-03-12T21:49:59.996Z,100945.75
2019-03-12T21:52:31.435Z,100944.58
2019-03-12T21:55:02.899Z,100948.22
2019-03-12T21:57:34.501Z,100945.31
2019-03-12T22:00:09.041Z,100950.22
2019-03-12T22:02:41.918Z,100946.43
2019-03-12T22:05:13.291Z,100955.39
2019-03-12T22:07:44.822Z,100967.92
2019-03-12T22:10:16.336Z,100957.92
2019-03-12T22:12:47.800Z,100958.35
2019-03-12T22:15:19.184Z,100963.41
2019-03-12T22:17:50.573Z,100958.26
2019-03-12T22:20:22.043Z,100959.14
2019-03-12T22:22:57.958Z,100956.91
2019-03-12T22:25:29.328Z,100957.45
2019-03-12T22:28:00.716Z,100959.36
2019-03-12T22:30:32.066Z,100953.14
2019-03-12T22:33:03.525Z,100960.58
2019-03-12T22:35:35.030Z,100958.20
2019-03-12T22:38:06.594Z,100961.68
2019-03-12T22:40:37.956Z,100965.64
2019-03-12T22:43:09.439Z,100973.02
2019-03-12T22:45:41.383Z,100962.98
2019-03-12T22:48:12.777Z,100967.47
2019-03-12T22:50:44.501Z,100969.37
2019-03-12T22:53:15.947Z,100969.05
2019-03-12T22:55:47.305Z,100968.62
2019-03-12T22:58:18.711Z,100971.03
2019-03-12T23:01:08.045Z,100977.52
2019-03-12T23:03:57.422Z,100964.55
2019-03-12T23:06:46.541Z,100967.66
2019-03-12T23:09:35.686Z,100972.51
2019-03-12T23:12:08.620Z,100970.70
2019-03-12T23:14:41.068Z,100967.69
2019-03-12T23:17:14.055Z,100964.28
2019-03-12T23:19:47.153Z,100956.09
2019-03-12T23:22:18.516Z,100958.61
2019-03-12T23:24:49.930Z,100950.20
2019-03-12T23:27:21.407Z,100948.83
2019-03-12T23:29:52.791Z,100952.73
2019-03-12T23:32:24.612Z,100953.65
2019-03-12T23:34:56.029Z,100953.73
2019-03-12T23:37:27.507Z,100956.42
2019-03-12T23:39:58.962Z,100952.54
2019-03-12T23:42:30.407Z,100954.78
2019-03-12T23:45:01.859Z,100954.89
2019-03-12T23:47:33.356Z,100951.45
2019-03-12T23:50:07.026Z,100952.18
2019-03-12T23:52:38.395Z,100949.82
2019-03-12T23:55:11.476Z,100952.78
2019-03-12T23:57:42.865Z,100944.67
